Etusivu
METAR-TAF:

METAR-TAF

Lentoasemat :

Adak Island, Alaska, Yhdysvallat

Leveyspiiri: 51-52-40N, Pituuspiiri: 176-38-45W, korkeus merenpinnasta: 6 m

Tämänhetkinen sää

Tämä raportti tehtiin 46 minuuttia sitten, kello 22.56 UTC
Tuuli 10 kn lännestä
Lämpötila 11°C
Kosteus 100%
Ilmanpaine 1008 hPa
Näkyvyys: 6.4 km
Pilvistä 700 ft:n korkeudessa
utua

METAR: PADK 192256Z AUTO 26010KT 4SM BR OVC007 11/11 A2977 RMK AO2 SLP082 T01110106 $

Aika: 15:42 (23:42 UTC)


TAF: puuttuu

Säähavainnot ja -ennusteet yli 4000 lentoasemalta (METAR- ja TAF-raportit).

Käytössä olevat sääasemat on merkitty karttaan keltaisilla ja punaisilla pisteillä.

Aseta hiiri pisteen päälle nähdäksesi sääaseman nimen.

Klikkaa sitten nähdäksesi säähavainnot ja -ennusteet.

Kartan vaihtaminen: klikkaa mustalla rastilla varustettuja vihreitä pisteitä, niin voit zoomata sisään; viivalla varustettua vihreää pistettä, niin voit zoomata ulos tai vihreitä nuolia, niin pääset viereisille kartoille.


METAR-TAF: